Time;durP1;ratioP1;P1;durP2;ratioP2;P2;SDS_P1;SDS_P2;PMS_P1;PMS_P2;Temp;Humidity;BMP_temperature;BMP_pressure;BME280_temperature;BME280_humidity;BME280_pressure;Samples;Min_cycle;Max_cycle;Signal;HPM_P1;HPM_P2
2023/10/23 00:01:16;;;;;;;3.80;2.10;;;9.60;99.90;;;;;;5041277;28;20224;-55
2023/10/23 00:03:42;;;;;;;4.10;1.97;;;9.60;99.90;;;;;;5045677;28;20233;-57
2023/10/23 00:06:09;;;;;;;4.63;2.10;;;9.50;99.90;;;;;;5042127;28;20312;-56
2023/10/23 00:08:37;;;;;;;4.20;1.93;;;9.50;99.90;;;;;;5044609;28;20641;-54
2023/10/23 00:11:04;;;;;;;4.90;2.20;;;9.40;99.90;;;;;;5042652;28;20209;-55
2023/10/23 00:13:31;;;;;;;7.73;2.43;;;9.40;99.90;;;;;;5043452;28;20194;-55
2023/10/23 00:15:57;;;;;;;3.80;1.90;;;9.40;99.90;;;;;;5043009;28;20707;-57
2023/10/23 00:18:25;;;;;;;6.13;2.43;;;9.30;99.90;;;;;;5039663;28;20694;-55
2023/10/23 00:20:51;;;;;;;5.07;2.00;;;9.30;99.90;;;;;;5046219;28;20296;-55
2023/10/23 00:23:18;;;;;;;5.10;1.80;;;9.20;99.90;;;;;;5040543;28;20248;-56
2023/10/23 00:25:46;;;;;;;4.90;1.87;;;9.30;99.90;;;;;;5039348;28;20213;-55
2023/10/23 00:28:13;;;;;;;3.13;1.90;;;9.30;99.90;;;;;;5041138;28;20211;-55
2023/10/23 00:30:39;;;;;;;4.00;1.83;;;9.30;99.90;;;;;;5042843;28;20211;-55
2023/10/23 00:33:06;;;;;;;4.00;1.60;;;9.30;99.90;;;;;;5042250;28;20209;-56
2023/10/23 00:35:33;;;;;;;5.23;1.93;;;9.30;99.90;;;;;;5043426;28;20233;-54
2023/10/23 00:37:59;;;;;;;7.33;2.00;;;9.30;99.90;;;;;;5042783;28;20205;-55
2023/10/23 00:40:26;;;;;;;4.17;1.90;;;9.30;99.90;;;;;;5038989;28;20202;-55
2023/10/23 00:42:55;;;;;;;4.80;1.87;;;9.30;99.90;;;;;;5047449;28;20679;-56
2023/10/23 00:45:22;;;;;;;5.87;2.00;;;9.20;99.90;;;;;;5044027;28;20233;-55
2023/10/23 00:47:49;;;;;;;3.60;1.70;;;9.30;99.90;;;;;;5049908;28;20212;-57
2023/10/23 00:50:16;;;;;;;4.37;2.17;;;9.30;99.90;;;;;;5044835;28;20323;-57
2023/10/23 00:52:43;;;;;;;3.50;1.80;;;9.30;99.90;;;;;;5048842;28;20216;-56
2023/10/23 00:55:11;;;;;;;2.73;1.70;;;9.30;99.90;;;;;;5045456;28;20229;-55
2023/10/23 00:57:38;;;;;;;3.23;1.90;;;9.30;99.90;;;;;;5048065;28;20671;-55
2023/10/23 01:00:08;;;;;;;4.53;1.77;;;9.30;99.90;;;;;;5046408;28;20259;-56
2023/10/23 01:02:35;;;;;;;2.97;1.73;;;9.30;99.90;;;;;;5047442;28;20213;-56
2023/10/23 01:05:03;;;;;;;2.20;1.70;;;9.30;99.90;;;;;;5046462;28;20695;-55
2023/10/23 01:07:29;;;;;;;4.40;2.17;;;9.30;99.90;;;;;;5043025;28;20229;-55
2023/10/23 01:09:56;;;;;;;3.43;1.50;;;9.20;99.90;;;;;;5043072;28;20214;-56
2023/10/23 01:12:22;;;;;;;4.73;1.70;;;9.20;99.90;;;;;;5051390;28;20209;-57
2023/10/23 01:14:49;;;;;;;3.43;1.90;;;9.20;99.90;;;;;;5049583;28;20225;-54
2023/10/23 01:17:17;;;;;;;4.47;1.73;;;9.20;99.90;;;;;;5044444;28;20216;-55
2023/10/23 01:19:44;;;;;;;6.07;1.73;;;9.20;99.90;;;;;;5048114;28;20206;-55
2023/10/23 01:22:11;;;;;;;3.27;2.07;;;9.20;99.90;;;;;;5044978;28;20209;-57
2023/10/23 01:24:41;;;;;;;4.23;1.67;;;9.20;99.90;;;;;;5046965;28;20749;-56
2023/10/23 01:27:10;;;;;;;3.93;1.80;;;9.20;99.90;;;;;;5045300;28;20217;-55
2023/10/23 01:29:36;;;;;;;3.87;1.50;;;9.10;99.90;;;;;;5046918;28;20217;-55
2023/10/23 01:32:03;;;;;;;4.20;1.43;;;9.00;99.90;;;;;;5045886;28;20209;-58
2023/10/23 01:34:30;;;;;;;2.97;1.57;;;8.90;99.90;;;;;;5042409;28;20254;-55
2023/10/23 01:36:57;;;;;;;3.97;1.70;;;8.90;99.90;;;;;;5049508;28;20397;-58
2023/10/23 01:39:24;;;;;;;5.63;1.90;;;8.90;99.90;;;;;;5043043;28;20216;-57
2023/10/23 01:41:50;;;;;;;5.90;2.00;;;8.90;99.90;;;;;;5048503;28;20690;-57
2023/10/23 01:44:18;;;;;;;5.67;2.57;;;8.80;99.90;;;;;;5043471;28;20719;-57
2023/10/23 01:46:45;;;;;;;3.33;1.93;;;8.70;99.90;;;;;;5047900;28;20307;-57
2023/10/23 01:49:12;;;;;;;5.60;1.60;;;8.70;99.90;;;;;;5044590;28;20296;-55
2023/10/23 01:51:39;;;;;;;4.97;1.77;;;8.70;99.90;;;;;;5046919;28;20210;-55
2023/10/23 01:54:06;;;;;;;4.77;1.97;;;8.60;99.90;;;;;;5044977;28;20301;-55
2023/10/23 01:56:35;;;;;;;4.70;1.80;;;8.60;99.90;;;;;;5046192;28;20221;-55
2023/10/23 01:59:01;;;;;;;7.63;1.70;;;8.60;99.90;;;;;;5045730;28;20255;-56
2023/10/23 02:01:32;;;;;;;4.00;1.53;;;8.50;99.90;;;;;;5041995;28;20210;-55
2023/10/23 02:03:58;;;;;;;4.73;1.97;;;8.40;99.90;;;;;;5049425;28;20222;-56
2023/10/23 02:06:25;;;;;;;6.20;2.17;;;8.40;99.90;;;;;;5042477;28;20224;-55
2023/10/23 02:08:52;;;;;;;2.13;1.60;;;8.40;99.90;;;;;;5048289;28;20205;-57
2023/10/23 02:11:19;;;;;;;4.23;1.93;;;8.30;99.90;;;;;;5043263;28;20292;-56
2023/10/23 02:13:46;;;;;;;4.67;2.00;;;8.30;99.90;;;;;;5047373;28;20729;-56
2023/10/23 02:16:13;;;;;;;5.70;2.20;;;8.30;99.90;;;;;;5044100;28;20212;-58
2023/10/23 02:18:41;;;;;;;2.47;1.50;;;8.30;99.90;;;;;;5046523;28;20209;-56
2023/10/23 02:21:07;;;;;;;8.63;2.27;;;8.30;99.90;;;;;;5044623;28;20220;-56
2023/10/23 02:23:34;;;;;;;2.27;1.40;;;8.30;99.90;;;;;;5045619;28;20225;-55
2023/10/23 02:26:01;;;;;;;3.30;2.00;;;8.30;99.90;;;;;;5045291;28;20209;-55
2023/10/23 02:28:28;;;;;;;4.60;1.77;;;8.20;99.90;;;;;;5041709;28;20209;-56
2023/10/23 02:30:55;;;;;;;3.20;1.50;;;8.20;99.90;;;;;;5048049;28;20210;-56
2023/10/23 02:33:21;;;;;;;5.50;1.90;;;8.20;99.90;;;;;;5042579;28;20645;-56
2023/10/23 02:35:49;;;;;;;3.60;1.80;;;8.10;99.90;;;;;;5047133;28;20255;-56
2023/10/23 02:38:16;;;;;;;2.40;1.67;;;8.10;99.90;;;;;;5043359;28;20212;-58
2023/10/23 02:40:51;;;;;;;3.27;1.67;;;8.10;99.90;;;;;;5046164;28;20216;-56
2023/10/23 02:43:18;;;;;;;3.97;1.73;;;8.10;99.90;;;;;;5042736;28;20217;-56
2023/10/23 02:45:44;;;;;;;6.87;1.93;;;8.10;99.90;;;;;;5046593;28;20232;-58
2023/10/23 02:48:11;;;;;;;8.57;1.80;;;8.10;99.90;;;;;;5044036;28;20209;-55
2023/10/23 02:50:38;;;;;;;5.33;1.33;;;8.10;99.90;;;;;;5045474;28;20237;-56
2023/10/23 02:53:06;;;;;;;4.83;1.70;;;8.10;99.90;;;;;;5044422;28;20233;-58
2023/10/23 02:55:33;;;;;;;4.23;1.67;;;8.10;99.90;;;;;;5040978;28;20223;-56
2023/10/23 02:58:00;;;;;;;7.07;2.37;;;8.00;99.90;;;;;;5048279;28;20595;-55
2023/10/23 03:00:27;;;;;;;3.90;1.80;;;8.00;99.90;;;;;;5041311;28;20210;-55
2023/10/23 03:02:54;;;;;;;3.10;1.80;;;8.00;99.90;;;;;;5047390;28;20629;-55
2023/10/23 03:05:21;;;;;;;7.43;1.77;;;8.00;99.90;;;;;;5040882;28;20565;-56
2023/10/23 03:07:48;;;;;;;3.90;1.70;;;7.90;99.90;;;;;;5046394;28;20634;-55
2023/10/23 03:10:16;;;;;;;2.70;1.47;;;7.90;99.90;;;;;;5042900;28;20271;-55
2023/10/23 03:12:43;;;;;;;3.60;1.70;;;7.90;99.90;;;;;;5045799;28;20205;-57
2023/10/23 03:15:10;;;;;;;5.60;2.00;;;7.90;99.90;;;;;;5043948;28;20228;-54
2023/10/23 03:17:37;;;;;;;5.17;1.93;;;8.00;99.90;;;;;;5044890;28;20205;-55
2023/10/23 03:20:06;;;;;;;5.13;1.77;;;7.90;99.90;;;;;;5043887;28;20218;-55
2023/10/23 03:22:33;;;;;;;6.23;3.43;;;7.90;99.90;;;;;;5040450;28;20738;-55
2023/10/23 03:25:00;;;;;;;2.80;2.07;;;7.90;99.90;;;;;;5047553;28;20225;-55
2023/10/23 03:27:28;;;;;;;5.10;1.70;;;7.90;99.90;;;;;;5041186;28;20538;-56
2023/10/23 03:29:54;;;;;;;4.23;1.90;;;7.90;99.90;;;;;;5046965;28;20216;-56
2023/10/23 03:32:21;;;;;;;8.07;1.93;;;7.80;99.90;;;;;;5041847;28;20236;-56
2023/10/23 03:34:48;;;;;;;8.20;2.27;;;7.80;99.90;;;;;;5045686;28;20222;-56
2023/10/23 03:37:15;;;;;;;7.60;2.30;;;7.80;99.90;;;;;;5042683;28;20209;-55
2023/10/23 03:39:41;;;;;;;4.37;1.53;;;7.70;99.90;;;;;;5044589;28;20259;-57
2023/10/23 03:42:09;;;;;;;4.07;1.77;;;7.70;99.90;;;;;;5043294;28;20625;-55
2023/10/23 03:44:37;;;;;;;2.30;1.40;;;7.70;99.90;;;;;;5040112;28;20253;-58
2023/10/23 03:47:05;;;;;;;4.13;1.70;;;7.70;99.90;;;;;;5047835;28;20205;-57
2023/10/23 03:49:31;;;;;;;4.03;1.80;;;7.60;99.90;;;;;;5039714;28;20630;-56
2023/10/23 03:51:58;;;;;;;3.70;1.70;;;7.60;99.90;;;;;;5046879;28;20683;-56
2023/10/23 03:54:26;;;;;;;3.13;1.53;;;7.60;99.90;;;;;;5040528;28;20228;-57
2023/10/23 03:56:53;;;;;;;3.50;1.67;;;7.60;99.90;;;;;;5046088;28;20205;-56
2023/10/23 03:59:19;;;;;;;5.87;2.10;;;7.60;99.90;;;;;;5041807;28;20205;-56
2023/10/23 04:01:47;;;;;;;4.80;2.00;;;7.60;99.90;;;;;;5044815;28;20702;-57
2023/10/23 04:04:14;;;;;;;3.57;2.10;;;7.60;99.90;;;;;;5069775;23;20221;-63
2023/10/23 04:06:41;;;;;;;3.70;1.70;;;7.60;99.90;;;;;;5071228;28;20212;-61
2023/10/23 04:09:08;;;;;;;2.90;1.70;;;7.60;99.90;;;;;;5071700;28;20209;-63
2023/10/23 04:11:34;;;;;;;4.20;1.77;;;7.50;99.90;;;;;;5062906;28;20236;-62
2023/10/23 04:14:01;;;;;;;4.03;2.00;;;7.60;99.90;;;;;;5071093;28;20209;-62
2023/10/23 04:16:28;;;;;;;4.13;1.80;;;7.60;99.90;;;;;;5059996;28;20262;-61
2023/10/23 04:18:56;;;;;;;3.33;1.93;;;7.60;99.90;;;;;;5059361;28;20205;-63
2023/10/23 04:21:23;;;;;;;4.53;1.90;;;7.50;99.90;;;;;;5060987;28;20212;-62
2023/10/23 04:23:50;;;;;;;3.93;2.27;;;7.50;99.90;;;;;;5062619;28;20738;-62
2023/10/23 04:26:17;;;;;;;3.93;1.87;;;7.50;99.90;;;;;;5061766;28;20626;-62
2023/10/23 04:28:44;;;;;;;6.23;2.07;;;7.50;99.90;;;;;;5059527;28;20213;-61
2023/10/23 04:31:11;;;;;;;4.00;2.17;;;7.50;99.90;;;;;;5059267;28;20201;-63
2023/10/23 04:33:38;;;;;;;5.43;1.80;;;7.50;99.90;;;;;;5062739;28;20670;-62
2023/10/23 04:36:06;;;;;;;4.60;2.00;;;7.50;99.90;;;;;;5062645;28;20225;-62
2023/10/23 04:38:33;;;;;;;3.27;1.90;;;7.50;99.90;;;;;;5059333;28;20606;-62
2023/10/23 04:41:00;;;;;;;3.10;1.80;;;7.40;99.90;;;;;;5059008;28;20609;-61
2023/10/23 04:43:27;;;;;;;7.43;2.50;;;7.40;99.90;;;;;;5061451;28;20209;-61
2023/10/23 04:45:55;;;;;;;3.40;2.20;;;7.50;99.90;;;;;;5062255;28;20705;-62
2023/10/23 04:48:21;;;;;;;5.80;2.10;;;7.50;99.90;;;;;;5060521;28;20206;-61
2023/10/23 04:50:48;;;;;;;6.90;2.17;;;7.50;99.90;;;;;;5058945;28;20209;-62
2023/10/23 04:53:16;;;;;;;2.70;1.60;;;7.50;99.90;;;;;;5059830;28;20630;-62
2023/10/23 04:55:43;;;;;;;3.43;1.70;;;7.50;99.90;;;;;;5062422;28;20240;-62
2023/10/23 04:58:10;;;;;;;2.13;1.77;;;7.50;99.90;;;;;;5062432;28;20564;-62
2023/10/23 05:00:38;;;;;;;4.20;1.90;;;7.50;99.90;;;;;;5050762;28;20201;-63
2023/10/23 05:03:05;;;;;;;3.47;1.73;;;7.50;99.90;;;;;;5058902;28;20652;-63
2023/10/23 05:05:32;;;;;;;4.00;2.43;;;7.50;99.90;;;;;;5062122;28;20224;-62
2023/10/23 05:07:59;;;;;;;3.13;1.90;;;7.50;99.90;;;;;;5062563;28;20240;-62
2023/10/23 05:10:27;;;;;;;4.13;2.00;;;7.50;99.90;;;;;;5059990;28;20217;-61
2023/10/23 05:12:54;;;;;;;6.10;1.87;;;7.50;99.90;;;;;;5058816;28;20683;-63
2023/10/23 05:15:21;;;;;;;5.13;2.03;;;7.50;99.90;;;;;;5060065;28;20224;-62
2023/10/23 05:17:48;;;;;;;4.60;2.10;;;7.50;99.90;;;;;;5061753;28;20662;-63
2023/10/23 05:20:15;;;;;;;5.20;2.10;;;7.50;99.90;;;;;;5061183;28;20671;-63
2023/10/23 05:22:41;;;;;;;4.20;1.90;;;7.50;99.90;;;;;;5058817;28;20209;-61
2023/10/23 05:25:09;;;;;;;3.50;2.27;;;7.40;99.90;;;;;;5058640;28;20612;-62
2023/10/23 05:27:37;;;;;;;8.07;2.53;;;7.40;99.90;;;;;;5050397;28;20237;-63
2023/10/23 05:30:07;;;;;;;4.63;2.10;;;7.40;99.90;;;;;;5061311;28;20259;-62
2023/10/23 05:32:34;;;;;;;3.80;2.30;;;7.30;99.90;;;;;;5066006;28;20216;-63
2023/10/23 05:35:01;;;;;;;5.23;2.37;;;7.40;99.90;;;;;;5066829;28;20221;-61
2023/10/23 05:37:28;;;;;;;6.23;2.20;;;7.30;99.90;;;;;;5064083;28;20201;-62
2023/10/23 05:39:55;;;;;;;3.57;2.00;;;7.30;99.90;;;;;;5062813;28;20255;-62
2023/10/23 05:42:21;;;;;;;3.17;1.90;;;7.30;99.90;;;;;;5064035;28;20612;-62
2023/10/23 05:44:49;;;;;;;3.60;2.23;;;7.30;99.90;;;;;;5066017;28;20229;-63
2023/10/23 05:47:15;;;;;;;8.23;3.13;;;7.30;99.90;;;;;;5064994;28;20209;-61
2023/10/23 05:49:42;;;;;;;4.97;3.47;;;7.30;99.90;;;;;;5061825;28;20215;-62
2023/10/23 05:52:08;;;;;;;4.57;2.10;;;7.30;99.90;;;;;;5061996;28;20205;-62
2023/10/23 05:54:35;;;;;;;5.07;1.90;;;7.40;99.90;;;;;;5065225;28;20217;-63
2023/10/23 05:57:02;;;;;;;7.13;2.50;;;7.40;99.90;;;;;;5065230;28;20234;-63
2023/10/23 05:59:28;;;;;;;5.80;2.20;;;7.40;99.90;;;;;;5062792;28;20250;-63
2023/10/23 06:01:56;;;;;;;4.37;2.43;;;7.40;99.90;;;;;;5061774;28;20208;-64
2023/10/23 06:04:23;;;;;;;4.40;2.23;;;7.40;99.90;;;;;;5062911;28;20225;-62
2023/10/23 06:06:50;;;;;;;6.13;2.80;;;7.50;99.90;;;;;;5065259;28;20204;-63
2023/10/23 06:09:16;;;;;;;4.77;2.47;;;7.50;99.90;;;;;;5064427;28;20209;-64
2023/10/23 06:11:43;;;;;;;3.80;2.40;;;7.60;99.90;;;;;;5061273;28;20646;-64
2023/10/23 06:14:10;;;;;;;6.53;2.10;;;7.70;99.90;;;;;;5061255;28;20229;-62
2023/10/23 06:16:36;;;;;;;6.60;2.83;;;7.70;99.90;;;;;;5064928;28;20629;-61
2023/10/23 06:19:05;;;;;;;5.37;2.67;;;7.80;99.90;;;;;;5064988;28;20304;-62
2023/10/23 06:21:32;;;;;;;6.17;4.47;;;7.80;99.90;;;;;;5061856;28;20209;-62
2023/10/23 06:23:59;;;;;;;6.50;2.80;;;7.90;99.90;;;;;;5061134;28;20297;-62
2023/10/23 06:26:28;;;;;;;6.30;3.10;;;8.00;99.90;;;;;;5062964;28;20725;-61
2023/10/23 06:28:55;;;;;;;3.07;2.30;;;8.20;99.90;;;;;;5064850;28;20209;-61
2023/10/23 06:31:22;;;;;;;5.83;2.70;;;8.30;99.90;;;;;;5063040;28;20201;-62
2023/10/23 06:33:48;;;;;;;5.23;2.80;;;8.40;99.90;;;;;;5061267;28;20210;-62
2023/10/23 06:36:16;;;;;;;5.50;2.60;;;8.50;99.90;;;;;;5061324;28;20198;-63
2023/10/23 06:38:43;;;;;;;4.87;2.63;;;8.60;99.90;;;;;;5064686;28;20215;-59
2023/10/23 06:41:09;;;;;;;5.77;2.60;;;8.80;99.90;;;;;;5063493;28;20209;-61
2023/10/23 06:43:37;;;;;;;4.07;2.50;;;9.10;99.90;;;;;;5061482;28;20206;-63
2023/10/23 06:46:04;;;;;;;4.40;2.47;;;9.40;99.90;;;;;;5061015;28;20726;-64
2023/10/23 06:48:31;;;;;;;6.80;2.50;;;10.00;99.90;;;;;;5063251;28;20198;-64
2023/10/23 06:50:57;;;;;;;3.63;2.50;;;10.70;99.90;;;;;;5064191;28;20573;-63
2023/10/23 06:53:25;;;;;;;4.20;2.50;;;11.50;99.90;;;;;;5062513;28;20279;-63
2023/10/23 06:55:54;;;;;;;4.70;2.20;;;12.40;99.90;;;;;;5061076;28;20300;-62
2023/10/23 06:58:21;;;;;;;3.87;1.90;;;13.10;99.90;;;;;;5061552;28;20201;-61
2023/10/23 07:00:48;;;;;;;3.17;1.90;;;13.80;99.90;;;;;;5064083;28;20201;-61
2023/10/23 07:03:15;;;;;;;4.47;1.90;;;14.10;99.90;;;;;;5063827;28;20208;-61
2023/10/23 07:05:43;;;;;;;3.87;2.00;;;13.90;99.90;;;;;;5060488;28;20292;-61
2023/10/23 07:08:09;;;;;;;8.47;1.97;;;13.50;99.90;;;;;;5060428;28;20209;-60
2023/10/23 07:10:38;;;;;;;3.50;1.87;;;13.20;99.90;;;;;;5063200;28;20632;-61
2023/10/23 07:13:05;;;;;;;7.40;2.00;;;12.90;99.90;;;;;;5064026;28;20201;-62
2023/10/23 07:15:33;;;;;;;3.73;2.10;;;12.50;99.90;;;;;;5061131;28;20228;-62
2023/10/23 07:18:00;;;;;;;4.20;2.20;;;12.30;99.90;;;;;;5060313;28;20315;-62
2023/10/23 07:20:27;;;;;;;6.27;2.20;;;12.10;99.90;;;;;;5061816;28;20205;-62
2023/10/23 07:22:53;;;;;;;3.37;2.10;;;11.90;99.90;;;;;;5063569;28;20208;-63
2023/10/23 07:25:20;;;;;;;4.53;2.30;;;11.80;99.90;;;;;;5062739;28;20365;-62
2023/10/23 07:27:49;;;;;;;5.17;2.53;;;11.50;99.90;;;;;;5060040;28;20262;-63
2023/10/23 07:30:16;;;;;;;4.07;2.03;;;11.20;99.90;;;;;;5059956;28;20206;-61
2023/10/23 07:32:43;;;;;;;3.50;2.37;;;11.20;99.90;;;;;;5063401;28;20584;-62
2023/10/23 07:35:10;;;;;;;7.40;2.63;;;11.20;99.90;;;;;;5063107;28;20698;-64
2023/10/23 07:37:37;;;;;;;5.50;2.57;;;11.40;99.90;;;;;;5060312;28;20202;-62
2023/10/23 07:40:05;;;;;;;4.77;2.50;;;11.60;99.90;;;;;;5059976;28;20553;-62
2023/10/23 07:42:32;;;;;;;7.67;3.87;;;11.80;99.90;;;;;;5062437;28;20209;-63
2023/10/23 07:45:00;;;;;;;9.73;6.30;;;11.90;99.90;;;;;;5063086;28;20581;-62
2023/10/23 07:47:28;;;;;;;14.07;9.47;;;11.90;99.90;;;;;;5061320;28;20200;-62
2023/10/23 07:49:55;;;;;;;8.10;3.80;;;11.90;99.90;;;;;;5059443;28;20229;-62
2023/10/23 07:52:21;;;;;;;8.90;3.57;;;12.00;99.90;;;;;;5060442;28;20619;-62
2023/10/23 07:54:48;;;;;;;6.37;3.23;;;12.00;99.90;;;;;;5063095;28;20308;-62
2023/10/23 07:57:15;;;;;;;4.83;3.00;;;12.10;99.90;;;;;;5062973;28;20231;-62
2023/10/23 07:59:41;;;;;;;6.53;2.73;;;12.00;99.90;;;;;;5051166;28;20620;-63
2023/10/23 08:02:09;;;;;;;23.10;19.73;;;12.00;99.90;;;;;;5059663;28;20585;-64
2023/10/23 08:04:36;;;;;;;8.73;3.30;;;12.10;99.90;;;;;;5062330;28;20252;-62
2023/10/23 08:07:03;;;;;;;5.77;2.90;;;12.30;99.90;;;;;;5063000;28;20216;-62
2023/10/23 08:09:30;;;;;;;4.70;2.80;;;12.50;99.90;;;;;;5060671;28;20205;-62
2023/10/23 08:11:56;;;;;;;5.93;2.00;;;12.70;99.90;;;;;;5059406;28;20858;-62
2023/10/23 08:14:23;;;;;;;6.60;3.07;;;13.00;99.90;;;;;;5060184;28;20733;-62
2023/10/23 08:16:52;;;;;;;5.93;3.10;;;13.30;99.90;;;;;;5062777;28;20269;-62
2023/10/23 08:19:20;;;;;;;6.33;3.47;;;13.40;99.90;;;;;;5062352;28;20212;-63
2023/10/23 08:21:47;;;;;;;5.63;2.73;;;13.60;99.90;;;;;;5059373;28;20236;-62
2023/10/23 08:24:15;;;;;;;5.17;2.73;;;13.80;99.90;;;;;;5059182;28;20714;-63
2023/10/23 08:26:41;;;;;;;5.07;2.00;;;14.00;99.90;;;;;;5051097;28;20217;-64
2023/10/23 08:29:08;;;;;;;4.20;2.20;;;14.20;99.90;;;;;;5059336;28;20212;-63
2023/10/23 08:31:35;;;;;;;3.33;1.73;;;14.40;99.90;;;;;;5061352;28;20604;-61
2023/10/23 08:34:01;;;;;;;5.17;2.23;;;14.50;99.90;;;;;;5062456;28;20549;-61
2023/10/23 08:36:30;;;;;;;5.63;2.83;;;14.50;99.90;;;;;;5060578;28;20686;-63
2023/10/23 08:38:57;;;;;;;7.23;2.47;;;14.40;99.90;;;;;;5059257;28;20236;-61
2023/10/23 08:41:25;;;;;;;4.30;2.60;;;14.30;99.90;;;;;;5059784;28;20202;-61
2023/10/23 08:43:52;;;;;;;17.77;13.80;;;14.30;99.90;;;;;;5062034;28;20201;-62
2023/10/23 08:46:19;;;;;;;7.10;2.60;;;14.50;99.90;;;;;;5061959;28;20221;-62
2023/10/23 08:48:46;;;;;;;4.17;2.47;;;14.60;99.90;;;;;;5059253;28;20209;-62
2023/10/23 08:51:15;;;;;;;3.47;2.27;;;14.80;99.90;;;;;;5059085;28;20202;-62
2023/10/23 08:53:49;;;;;;;4.37;2.10;;;15.00;99.90;;;;;;5059173;28;20209;-62
2023/10/23 08:56:19;;;;;;;7.63;2.77;;;15.20;99.90;;;;;;5058729;28;20201;-62
2023/10/23 08:58:55;;;;;;;8.23;2.83;;;15.30;99.90;;;;;;5051405;28;20210;-62
2023/10/23 09:01:22;;;;;;;6.20;2.90;;;15.10;99.90;;;;;;5059213;28;20224;-61
2023/10/23 09:03:48;;;;;;;5.60;2.63;;;14.90;99.90;;;;;;5063159;28;20212;-62
2023/10/23 09:06:18;;;;;;;6.85;2.78;;;14.90;99.90;;;;;;5066040;28;20216;-63
2023/10/23 09:08:46;;;;;;;5.57;2.75;;;14.90;99.90;;;;;;5054893;28;20229;-61
2023/10/23 09:11:13;;;;;;;4.20;2.40;;;14.90;99.90;;;;;;5062381;28;20197;-58
2023/10/23 09:13:42;;;;;;;5.28;2.33;;;14.80;99.90;;;;;;5062698;28;20252;-61
2023/10/23 09:16:10;;;;;;;6.88;2.95;;;14.70;99.90;;;;;;5062984;28;20279;-62
2023/10/23 09:18:46;;;;;;;8.07;2.72;;;14.90;99.90;;;;;;5065180;28;20299;-60
2023/10/23 09:21:12;;;;;;;8.23;2.80;;;15.20;99.90;;;;;;5065516;28;20551;-62
2023/10/23 09:23:53;;;;;;;7.90;2.90;;;15.50;99.90;;;;;;5062568;28;20201;-62
2023/10/23 09:26:20;;;;;;;3.77;2.30;;;15.50;99.90;;;;;;5062506;28;20221;-62
2023/10/23 09:28:49;;;;;;;5.30;2.40;;;15.10;99.90;;;;;;5066026;28;20205;-61
2023/10/23 09:31:16;;;;;;;4.35;2.28;;;14.70;99.90;;;;;;5065778;28;20208;-63
2023/10/23 09:33:44;;;;;;;5.03;2.70;;;14.30;99.90;;;;;;5062220;28;20574;-61
2023/10/23 09:36:11;;;;;;;5.43;2.80;;;14.00;99.90;;;;;;5062249;28;20202;-60
2023/10/23 09:38:39;;;;;;;7.03;2.93;;;13.70;99.90;;;;;;5064923;28;20221;-61
2023/10/23 09:41:09;;;;;;;6.33;2.40;;;13.60;99.90;;;;;;5065702;28;20209;-62
2023/10/23 09:43:43;;;;;;;7.10;2.60;;;13.70;99.90;;;;;;5065521;28;20210;-63
2023/10/23 09:46:11;;;;;;;5.20;2.50;;;13.70;99.90;;;;;;5065519;28;20303;-63
2023/10/23 09:48:40;;;;;;;5.15;2.60;;;13.60;99.90;;;;;;5062443;28;20209;-63
2023/10/23 09:51:12;;;;;;;4.93;2.40;;;13.50;99.90;;;;;;5061711;28;20204;-63
2023/10/23 09:53:39;;;;;;;3.80;1.97;;;13.50;99.90;;;;;;5064703;28;20220;-62
2023/10/23 09:56:08;;;;;;;7.00;3.57;;;13.60;99.90;;;;;;5065112;28;20213;-63
2023/10/23 09:58:38;;;;;;;4.77;2.57;;;13.80;99.90;;;;;;5062965;28;20209;-62
2023/10/23 10:01:09;;;;;;;5.67;2.97;;;13.90;99.90;;;;;;5061577;28;20205;-63
2023/10/23 10:03:39;;;;;;;5.93;2.67;;;14.00;99.90;;;;;;5064033;28;20243;-63
2023/10/23 10:06:14;;;;;;;4.37;2.30;;;14.10;99.90;;;;;;5072722;22;20230;-61
2023/10/23 10:08:42;;;;;;;4.33;2.20;;;14.20;99.90;;;;;;5050174;28;20206;-61
2023/10/23 10:11:11;;;;;;;4.53;2.20;;;14.40;99.90;;;;;;5048559;28;20706;-60
2023/10/23 10:13:38;;;;;;;5.70;2.30;;;14.50;99.90;;;;;;5042663;28;20282;-61
2023/10/23 10:16:06;;;;;;;4.73;2.37;;;14.40;99.90;;;;;;5047490;28;20275;-62
2023/10/23 10:18:35;;;;;;;4.17;2.43;;;14.40;99.90;;;;;;5043232;28;20567;-61
2023/10/23 10:21:06;;;;;;;4.93;2.30;;;14.60;99.90;;;;;;5047350;28;20212;-62
2023/10/23 10:23:35;;;;;;;4.53;2.37;;;14.50;99.90;;;;;;5043203;28;20201;-60
2023/10/23 10:26:04;;;;;;;7.17;2.57;;;14.30;99.90;;;;;;5041405;28;20322;-65
2023/10/23 10:28:32;;;;;;;5.50;2.50;;;14.20;99.90;;;;;;5042672;28;20261;-62
2023/10/23 10:30:59;;;;;;;8.40;2.50;;;14.00;99.90;;;;;;5044817;28;20561;-62
2023/10/23 10:33:29;;;;;;;4.10;2.50;;;13.90;99.90;;;;;;5043374;28;20671;-62
2023/10/23 10:35:59;;;;;;;10.97;2.90;;;14.00;99.90;;;;;;5041505;28;20222;-63
2023/10/23 10:38:29;;;;;;;5.10;2.30;;;14.30;99.90;;;;;;5049196;28;20201;-62
2023/10/23 10:40:57;;;;;;;4.60;2.67;;;14.60;99.90;;;;;;5041245;28;20234;-62
2023/10/23 10:43:26;;;;;;;9.03;2.70;;;15.00;99.90;;;;;;5041775;28;20205;-61
2023/10/23 10:45:55;;;;;;;6.30;3.25;;;15.30;99.90;;;;;;5044409;28;20225;-62
2023/10/23 10:48:24;;;;;;;7.65;2.95;;;15.20;99.90;;;;;;5044418;28;20201;-62
2023/10/23 10:50:52;;;;;;;7.73;2.67;;;15.20;99.90;;;;;;5045031;28;20209;-61
2023/10/23 10:53:19;;;;;;;5.10;2.80;;;15.20;99.90;;;;;;5044208;28;20206;-62
2023/10/23 10:55:46;;;;;;;5.88;2.60;;;15.10;99.90;;;;;;5041174;28;20645;-62
2023/10/23 10:58:13;;;;;;;5.07;2.78;;;15.00;99.90;;;;;;5041019;28;20248;-62
2023/10/23 11:00:40;;;;;;;6.07;2.60;;;14.80;99.90;;;;;;5043439;28;20206;-61
2023/10/23 11:03:08;;;;;;;5.40;2.93;;;14.90;99.90;;;;;;5044412;28;20570;-61
2023/10/23 11:05:37;;;;;;;4.10;2.40;;;14.90;99.90;;;;;;5041968;28;20244;-62
2023/10/23 11:08:05;;;;;;;5.55;2.53;;;14.90;99.90;;;;;;5040307;28;20772;-61
2023/10/23 11:10:32;;;;;;;3.42;2.40;;;14.90;99.90;;;;;;5048324;28;20216;-64
2023/10/23 11:12:59;;;;;;;4.38;2.53;;;14.90;99.90;;;;;;5045754;28;20202;-64
2023/10/23 11:15:26;;;;;;;4.90;2.50;;;14.80;99.90;;;;;;5043162;28;20222;-63
2023/10/23 11:17:53;;;;;;;4.25;2.10;;;14.70;99.90;;;;;;5044881;28;20201;-62
2023/10/23 11:20:21;;;;;;;6.03;2.20;;;14.60;99.90;;;;;;5043777;28;20370;-62
2023/10/23 11:22:48;;;;;;;6.33;2.40;;;14.80;99.90;;;;;;5043740;28;20233;-63
2023/10/23 11:25:17;;;;;;;4.95;2.45;;;15.20;99.90;;;;;;5043819;28;20292;-62
2023/10/23 11:27:46;;;;;;;3.53;2.90;;;15.60;99.90;;;;;;5039804;28;20229;-63
2023/10/23 11:30:13;;;;;;;5.97;3.63;;;16.00;99.90;;;;;;5040342;28;20203;-63
2023/10/23 11:32:40;;;;;;;5.68;2.65;;;16.30;99.90;;;;;;5048213;28;20209;-60
2023/10/23 11:35:07;;;;;;;3.95;2.35;;;16.30;99.90;;;;;;5040626;28;20237;-58
2023/10/23 11:37:38;;;;;;;5.15;2.53;;;16.10;99.90;;;;;;5048435;28;20202;-58
2023/10/23 11:40:09;;;;;;;4.70;2.53;;;15.90;99.90;;;;;;5046207;28;20489;-61
2023/10/23 11:42:49;;;;;;;4.80;2.20;;;15.70;99.90;;;;;;5041659;28;20209;-61
2023/10/23 11:45:18;;;;;;;8.93;2.90;;;15.70;99.90;;;;;;5047520;28;20225;-58
2023/10/23 11:47:44;;;;;;;3.63;2.05;;;15.60;99.90;;;;;;5040658;28;20344;-59
2023/10/23 11:50:12;;;;;;;6.47;2.70;;;15.60;99.90;;;;;;5046774;28;20217;-59
2023/10/23 11:52:45;;;;;;;6.32;2.58;;;15.50;99.90;;;;;;5041499;28;20300;-58
2023/10/23 11:55:14;;;;;;;4.00;2.47;;;15.30;99.90;;;;;;5046824;28;20320;-59
2023/10/23 11:57:41;;;;;;;2.78;2.13;;;15.20;99.90;;;;;;5040741;28;20206;-60
2023/10/23 12:00:12;;;;;;;4.88;2.60;;;15.30;99.90;;;;;;5046132;28;20663;-58
2023/10/23 12:02:40;;;;;;;6.40;2.45;;;15.70;99.90;;;;;;5041323;28;20202;-59
2023/10/23 12:05:10;;;;;;;3.42;2.42;;;16.20;99.90;;;;;;5045993;28;20230;-58
2023/10/23 12:07:39;;;;;;;5.32;3.20;;;16.70;99.90;;;;;;5041349;28;20257;-57
2023/10/23 12:10:08;;;;;;;7.78;2.80;;;17.20;99.90;;;;;;5045730;28;20232;-58
2023/10/23 12:12:36;;;;;;;11.20;3.13;;;17.30;99.90;;;;;;5041542;28;20594;-58
2023/10/23 12:15:03;;;;;;;4.75;2.45;;;17.10;99.90;;;;;;5045429;28;20222;-59
2023/10/23 12:17:30;;;;;;;8.18;3.42;;;16.90;99.90;;;;;;5042317;28;20572;-59
2023/10/23 12:19:56;;;;;;;4.03;2.50;;;16.90;99.90;;;;;;5044322;28;20201;-58
2023/10/23 12:22:23;;;;;;;6.47;3.00;;;17.00;99.90;;;;;;5042919;28;20209;-58
2023/10/23 12:24:50;;;;;;;5.85;2.70;;;16.80;99.90;;;;;;5043203;28;20221;-57
2023/10/23 12:27:18;;;;;;;5.65;2.70;;;16.60;99.90;;;;;;5043203;28;20221;-58
2023/10/23 12:29:45;;;;;;;6.93;2.80;;;16.50;99.90;;;;;;5040015;28;20206;-58
2023/10/23 12:32:13;;;;;;;6.50;3.70;;;16.70;99.90;;;;;;5046192;28;20205;-57
2023/10/23 12:34:40;;;;;;;5.97;2.92;;;16.90;99.90;;;;;;5040345;28;20222;-58
2023/10/23 12:37:07;;;;;;;3.65;2.30;;;17.10;99.90;;;;;;5045435;28;20201;-58
2023/10/23 12:39:34;;;;;;;6.13;2.83;;;17.20;99.90;;;;;;5041088;28;20213;-58
2023/10/23 12:42:00;;;;;;;4.63;2.70;;;17.30;99.90;;;;;;5044550;28;20202;-58
2023/10/23 12:44:28;;;;;;;5.40;2.95;;;17.50;99.90;;;;;;5042166;28;20229;-59
2023/10/23 12:46:55;;;;;;;4.53;2.20;;;17.70;99.90;;;;;;5043454;28;20221;-59
2023/10/23 12:49:22;;;;;;;5.65;2.85;;;17.70;99.90;;;;;;5042966;28;20209;-59
2023/10/23 12:51:48;;;;;;;4.25;2.50;;;17.80;99.90;;;;;;5038786;28;20198;-59
2023/10/23 12:54:15;;;;;;;5.25;2.60;;;17.80;99.90;;;;;;5039429;28;20581;-58